createdAt,value
2023-03-24T00:02:15.820Z,100843.78
2023-03-24T00:04:47.530Z,100845.04
2023-03-24T00:07:18.878Z,100839.23
2023-03-24T00:09:48.034Z,100840.16
2023-03-24T00:12:18.172Z,100836.77
2023-03-24T00:14:47.222Z,100833.36
2023-03-24T00:17:17.377Z,100840.92
2023-03-24T00:19:46.656Z,100840.04
2023-03-24T00:22:15.846Z,100838.17
2023-03-24T00:24:45.823Z,100837.58
2023-03-24T00:27:17.024Z,100842.36
2023-03-24T00:29:46.170Z,100839.89
2023-03-24T00:32:15.357Z,100835.14
2023-03-24T00:34:44.417Z,100836.26
2023-03-24T00:37:13.595Z,100839.00
2023-03-24T00:39:43.838Z,100842.20
2023-03-24T00:42:13.278Z,100847.22
2023-03-24T00:44:44.326Z,100848.05
2023-03-24T00:47:13.361Z,100844.52
2023-03-24T00:49:42.598Z,100842.55
2023-03-24T00:52:13.127Z,100843.09
2023-03-24T00:54:42.789Z,100841.72
2023-03-24T00:57:14.147Z,100833.82
2023-03-24T00:59:48.549Z,100833.88
2023-03-24T01:02:21.695Z,100836.31
2023-03-24T01:04:55.925Z,100839.44
2023-03-24T01:07:26.736Z,100837.77
2023-03-24T01:09:57.305Z,100834.25
2023-03-24T01:12:27.715Z,100838.73
2023-03-24T01:14:59.435Z,100843.09
2023-03-24T01:17:29.526Z,100848.57
2023-03-24T01:19:58.959Z,100854.56
2023-03-24T01:22:30.734Z,100867.41
2023-03-24T01:25:00.390Z,100877.45
2023-03-24T01:27:29.529Z,100879.48
2023-03-24T01:30:01.136Z,100864.36
2023-03-24T01:32:30.646Z,100846.45
2023-03-24T01:34:59.848Z,100839.77
2023-03-24T01:37:29.271Z,100837.64
2023-03-24T01:39:58.486Z,100809.36
2023-03-24T01:42:28.461Z,100797.66
2023-03-24T01:45:21.746Z,100796.30
2023-03-24T01:47:51.130Z,100795.88
2023-03-24T01:50:20.920Z,100800.45
2023-03-24T01:52:50.040Z,100797.34
2023-03-24T01:55:19.697Z,100783.02
2023-03-24T01:57:51.859Z,100782.16
2023-03-24T02:00:22.393Z,100777.23
2023-03-24T02:02:57.981Z,100773.03
2023-03-24T02:05:32.612Z,100764.69
2023-03-24T02:08:09.501Z,100767.70
2023-03-24T02:10:39.651Z,100777.02
2023-03-24T02:13:09.800Z,100776.02
2023-03-24T02:15:45.689Z,100783.56
2023-03-24T02:18:25.120Z,100783.42
2023-03-24T02:21:30.182Z,100787.52
2023-03-24T02:24:34.033Z,100793.90
2023-03-24T02:27:10.134Z,100801.67
2023-03-24T02:30:11.044Z,100801.13
2023-03-24T02:33:20.299Z,100798.84
2023-03-24T02:36:22.986Z,100800.71
2023-03-24T02:39:15.674Z,100793.79
2023-03-24T02:41:53.707Z,100793.66
2023-03-24T02:44:30.793Z,100793.02
2023-03-24T02:47:08.650Z,100799.15
2023-03-24T02:49:45.433Z,100800.52
2023-03-24T02:52:21.315Z,100798.25
2023-03-24T02:54:51.646Z,100799.86
2023-03-24T02:57:26.680Z,100787.32
2023-03-24T03:00:01.921Z,100795.23
2023-03-24T03:02:35.229Z,100792.73
2023-03-24T03:05:09.099Z,100787.70
2023-03-24T03:07:38.569Z,100792.78
2023-03-24T03:10:13.974Z,100790.34
2023-03-24T03:12:44.544Z,100791.42
2023-03-24T03:15:17.759Z,100790.05
2023-03-24T03:17:53.287Z,100784.84
2023-03-24T03:20:24.500Z,100792.72
2023-03-24T03:23:00.273Z,100792.30
2023-03-24T03:25:35.323Z,100797.61
2023-03-24T03:28:06.934Z,100798.04
2023-03-24T03:30:40.061Z,100794.86
2023-03-24T03:33:17.751Z,100794.55
2023-03-24T03:35:52.859Z,100789.06
2023-03-24T03:38:27.068Z,100788.80
2023-03-24T03:40:58.759Z,100784.10
2023-03-24T03:43:30.364Z,100778.25
2023-03-24T03:46:01.208Z,100781.95
2023-03-24T03:48:31.132Z,100776.64
2023-03-24T03:51:13.177Z,100775.94
2023-03-24T03:53:48.400Z,100776.86
2023-03-24T03:56:20.732Z,100773.66
2023-03-24T03:58:50.507Z,100784.41
2023-03-24T04:01:22.708Z,100789.11
2023-03-24T04:04:19.700Z,100796.26
2023-03-24T04:07:00.039Z,100798.05
2023-03-24T04:09:42.218Z,100801.61
2023-03-24T04:12:26.986Z,100802.81
2023-03-24T04:15:17.084Z,100804.81
2023-03-24T04:18:06.570Z,100803.32
2023-03-24T04:20:45.998Z,100802.73
2023-03-24T04:23:28.039Z,100805.36
2023-03-24T04:26:06.965Z,100812.42
2023-03-24T04:28:47.417Z,100819.44
2023-03-24T04:31:23.064Z,100825.55
2023-03-24T04:33:57.793Z,100819.44
2023-03-24T04:36:33.965Z,100831.39
2023-03-24T04:39:04.557Z,100833.20
2023-03-24T04:41:34.227Z,100835.65
2023-03-24T04:44:04.511Z,100837.84
2023-03-24T04:46:34.770Z,100843.80
2023-03-24T04:49:04.444Z,100847.80
2023-03-24T04:51:34.499Z,100851.70
2023-03-24T04:54:03.693Z,100840.54
2023-03-24T04:56:40.169Z,100845.09
2023-03-24T04:59:09.409Z,100847.23
2023-03-24T05:01:38.666Z,100849.68
2023-03-24T05:04:08.857Z,100846.58
2023-03-24T05:06:37.739Z,100847.18
2023-03-24T05:09:06.630Z,100844.67
2023-03-24T05:11:36.028Z,100837.21
2023-03-24T05:14:04.930Z,100834.69
2023-03-24T05:16:33.925Z,100837.88
2023-03-24T05:19:03.615Z,100835.16
2023-03-24T05:21:33.849Z,100839.08
2023-03-24T05:24:03.244Z,100841.46
2023-03-24T05:26:33.403Z,100844.05
2023-03-24T05:29:02.769Z,100849.25
2023-03-24T05:31:31.637Z,100850.34
2023-03-24T05:34:00.717Z,100846.36
2023-03-24T05:36:29.550Z,100844.11
2023-03-24T05:38:58.579Z,100847.07
2023-03-24T05:41:27.734Z,100838.62
2023-03-24T05:43:56.786Z,100852.84
2023-03-24T05:46:26.683Z,100850.58
2023-03-24T05:48:55.819Z,100850.39
2023-03-24T05:51:25.004Z,100855.44
2023-03-24T05:53:54.100Z,100856.89
2023-03-24T05:56:23.186Z,100864.55
2023-03-24T05:58:52.187Z,100862.65
2023-03-24T06:01:21.206Z,100863.60
2023-03-24T06:03:50.137Z,100861.30
2023-03-24T06:06:19.011Z,100862.27
2023-03-24T06:08:48.891Z,100862.44
2023-03-24T06:11:18.186Z,100858.73
2023-03-24T06:13:47.435Z,100851.80
2023-03-24T06:16:18.252Z,100859.73
2023-03-24T06:18:51.829Z,100858.95
2023-03-24T06:21:21.597Z,100859.21
2023-03-24T06:23:50.550Z,100858.17
2023-03-24T06:26:19.628Z,100861.97
2023-03-24T06:28:51.298Z,100866.08
2023-03-24T06:31:21.033Z,100862.33
2023-03-24T06:33:51.062Z,100861.83
2023-03-24T06:36:20.464Z,100866.83
2023-03-24T06:38:51.003Z,100867.02
2023-03-24T06:41:20.208Z,100866.67
2023-03-24T06:43:49.097Z,100864.05
2023-03-24T06:46:18.082Z,100863.21
2023-03-24T06:48:48.556Z,100864.22
2023-03-24T06:51:18.070Z,100867.16
2023-03-24T06:53:47.126Z,100861.93
2023-03-24T06:56:17.658Z,100863.05
2023-03-24T06:58:47.462Z,100864.30
2023-03-24T07:01:16.595Z,100862.36
2023-03-24T07:03:45.821Z,100856.21
2023-03-24T07:06:15.079Z,100859.48
2023-03-24T07:08:45.410Z,100856.20
2023-03-24T07:11:15.026Z,100858.66
2023-03-24T07:13:43.994Z,100856.73
2023-03-24T07:16:13.124Z,100860.60
2023-03-24T07:18:42.119Z,100858.83
2023-03-24T07:21:11.129Z,100854.52
2023-03-24T07:23:40.135Z,100851.81
2023-03-24T07:26:09.000Z,100855.35
2023-03-24T07:28:38.062Z,100857.76
2023-03-24T07:31:10.209Z,100850.90
2023-03-24T07:33:39.597Z,100854.30
2023-03-24T07:36:09.859Z,100850.15
2023-03-24T07:38:38.820Z,100854.70
2023-03-24T07:41:07.991Z,100853.33
2023-03-24T07:43:37.070Z,100850.52
2023-03-24T07:46:09.049Z,100849.98
2023-03-24T07:48:38.338Z,100847.05
2023-03-24T07:51:07.636Z,100846.55
2023-03-24T07:53:37.112Z,100848.63
2023-03-24T07:56:07.197Z,100851.17
2023-03-24T07:58:36.065Z,100849.36
2023-03-24T08:01:09.150Z,100843.86
2023-03-24T08:03:38.417Z,100846.26
2023-03-24T08:06:09.242Z,100847.89
2023-03-24T08:08:38.394Z,100843.73
2023-03-24T08:11:07.631Z,100846.58
2023-03-24T08:13:36.628Z,100849.17
2023-03-24T08:16:06.218Z,100849.38
2023-03-24T08:18:38.238Z,100851.00
2023-03-24T08:21:07.605Z,100846.85
2023-03-24T08:23:36.583Z,100844.02
2023-03-24T08:26:06.662Z,100842.11
2023-03-24T08:28:35.726Z,100840.03
2023-03-24T08:31:05.560Z,100839.57
2023-03-24T08:33:35.482Z,100836.25
2023-03-24T08:36:05.154Z,100835.25
2023-03-24T08:38:38.170Z,100836.02
2023-03-24T08:41:07.986Z,100837.20
2023-03-24T08:43:37.713Z,100834.20
2023-03-24T08:46:10.548Z,100835.35
2023-03-24T08:48:41.337Z,100832.91
2023-03-24T08:51:15.144Z,100833.20
2023-03-24T08:53:44.414Z,100831.66
2023-03-24T08:56:13.771Z,100832.64
2023-03-24T08:58:42.815Z,100830.39
2023-03-24T09:01:11.918Z,100831.94
2023-03-24T09:03:40.965Z,100824.48
2023-03-24T09:06:10.797Z,100823.39
2023-03-24T09:08:40.814Z,100823.98
2023-03-24T09:11:15.729Z,100827.09
2023-03-24T09:13:45.450Z,100826.45
2023-03-24T09:16:15.037Z,100821.15
2023-03-24T09:18:44.956Z,100822.70
2023-03-24T09:21:14.363Z,100818.89
2023-03-24T09:23:43.678Z,100819.45
2023-03-24T09:26:12.774Z,100814.89
2023-03-24T09:28:41.792Z,100818.49
2023-03-24T09:31:11.768Z,100813.64
2023-03-24T09:33:41.071Z,100808.31
2023-03-24T09:36:11.559Z,100811.23
2023-03-24T09:38:41.080Z,100813.35
2023-03-24T09:41:17.312Z,100814.33
2023-03-24T09:43:50.580Z,100812.59
2023-03-24T09:46:28.970Z,100812.63
2023-03-24T09:48:58.516Z,100805.75
2023-03-24T09:51:29.569Z,100800.58
2023-03-24T09:54:09.370Z,100797.08
2023-03-24T09:56:41.383Z,100788.67
2023-03-24T09:59:16.433Z,100793.46
2023-03-24T10:01:45.818Z,100796.59
2023-03-24T10:04:18.742Z,100790.64
2023-03-24T10:06:52.667Z,100789.36
2023-03-24T10:09:28.015Z,100785.69
2023-03-24T10:12:16.471Z,100790.02
2023-03-24T10:15:05.594Z,100787.23
2023-03-24T10:17:46.968Z,100787.20
2023-03-24T10:20:28.868Z,100787.77
2023-03-24T10:23:05.471Z,100781.12
2023-03-24T10:25:47.666Z,100777.77
2023-03-24T10:28:23.559Z,100779.25
2023-03-24T10:30:56.180Z,100775.46
2023-03-24T10:33:25.378Z,100776.94
2023-03-24T10:36:01.494Z,100768.36
2023-03-24T10:38:30.916Z,100767.20
2023-03-24T10:41:00.961Z,100770.02
2023-03-24T10:43:30.919Z,100761.12
2023-03-24T10:46:02.171Z,100759.54
2023-03-24T10:48:45.012Z,100752.87
2023-03-24T10:51:17.438Z,100755.42
2023-03-24T10:53:48.231Z,100751.84
2023-03-24T10:56:19.422Z,100748.80
2023-03-24T10:58:48.601Z,100751.98
2023-03-24T11:01:26.736Z,100744.23
2023-03-24T11:04:03.944Z,100738.55
2023-03-24T11:06:33.789Z,100731.95
2023-03-24T11:09:16.239Z,100733.87
2023-03-24T11:11:46.066Z,100728.20
2023-03-24T11:14:24.755Z,100724.50
2023-03-24T11:17:02.996Z,100721.05
2023-03-24T11:19:36.175Z,100713.16
2023-03-24T11:22:06.776Z,100710.02
2023-03-24T11:24:38.206Z,100702.88
2023-03-24T11:27:14.551Z,100693.86
2023-03-24T11:29:46.220Z,100694.32
2023-03-24T11:32:20.404Z,100691.48
2023-03-24T11:34:57.197Z,100691.05
2023-03-24T11:37:32.737Z,100683.96
2023-03-24T11:40:20.772Z,100683.42
2023-03-24T11:42:53.332Z,100684.70
2023-03-24T11:45:27.289Z,100679.02
2023-03-24T11:47:58.221Z,100676.85
2023-03-24T11:50:30.172Z,100676.25
2023-03-24T11:53:07.703Z,100674.97
2023-03-24T11:55:43.229Z,100668.44
2023-03-24T11:58:17.528Z,100663.69
2023-03-24T12:00:52.544Z,100669.16
2023-03-24T12:03:51.984Z,100664.45
2023-03-24T12:06:35.288Z,100665.73
2023-03-24T12:09:20.056Z,100663.41
2023-03-24T12:12:13.425Z,100659.46
2023-03-24T12:14:53.012Z,100644.48
2023-03-24T12:17:25.590Z,100645.77
2023-03-24T12:20:11.801Z,100644.39
2023-03-24T12:22:52.567Z,100634.48
2023-03-24T12:25:51.256Z,100629.33
2023-03-24T12:28:45.882Z,100625.60
2023-03-24T12:31:39.396Z,100621.90
2023-03-24T12:34:31.752Z,100624.02
2023-03-24T12:37:07.885Z,100617.58
2023-03-24T12:39:48.640Z,100618.41
2023-03-24T12:42:19.464Z,100617.31
2023-03-24T12:45:27.352Z,100611.69
2023-03-24T12:48:12.871Z,100604.99
2023-03-24T12:50:53.894Z,100599.45
2023-03-24T12:53:41.134Z,100599.58
2023-03-24T12:56:16.966Z,100597.02
2023-03-24T12:58:49.659Z,100593.17
2023-03-24T13:01:28.868Z,100584.31
2023-03-24T13:04:05.290Z,100584.52
2023-03-24T13:06:40.228Z,100583.53
2023-03-24T13:09:19.563Z,100575.04
2023-03-24T13:11:57.467Z,100574.38
2023-03-24T13:14:31.960Z,100575.95
2023-03-24T13:17:06.077Z,100576.73
2023-03-24T13:19:37.683Z,100568.84
2023-03-24T13:22:12.504Z,100568.24
2023-03-24T13:24:42.256Z,100568.66
2023-03-24T13:27:16.647Z,100563.92
2023-03-24T13:30:15.703Z,100559.52
2023-03-24T13:32:48.139Z,100550.84
2023-03-24T13:35:28.286Z,100552.86
2023-03-24T13:38:05.508Z,100548.19
2023-03-24T13:40:39.849Z,100541.36
2023-03-24T13:43:13.405Z,100536.92
2023-03-24T13:45:47.214Z,100535.32
2023-03-24T13:48:27.195Z,100536.94
2023-03-24T13:51:00.296Z,100535.77
2023-03-24T13:53:36.112Z,100534.00
2023-03-24T13:56:08.865Z,100529.52
2023-03-24T13:59:08.372Z,100533.91
2023-03-24T14:01:39.403Z,100533.34
2023-03-24T14:04:28.121Z,100529.73
2023-03-24T14:06:58.884Z,100530.05
2023-03-24T14:09:30.585Z,100523.18
2023-03-24T14:12:26.495Z,100524.01
2023-03-24T14:15:17.952Z,100523.55
2023-03-24T14:17:50.095Z,100524.05
2023-03-24T14:20:34.651Z,100520.36
2023-03-24T14:23:04.952Z,100521.61
2023-03-24T14:25:36.256Z,100520.58
2023-03-24T14:28:28.459Z,100514.91
2023-03-24T14:31:03.031Z,100507.70
2023-03-24T14:33:32.084Z,100506.89
2023-03-24T14:36:11.405Z,100500.99
2023-03-24T14:38:44.556Z,100502.70
2023-03-24T14:41:16.688Z,100488.38
2023-03-24T14:43:57.774Z,100491.37
2023-03-24T14:46:41.350Z,100495.92
2023-03-24T14:49:23.600Z,100498.27
2023-03-24T14:51:58.343Z,100496.48
2023-03-24T14:54:34.815Z,100498.27
2023-03-24T14:57:05.794Z,100498.58
2023-03-24T14:59:46.746Z,100492.36
2023-03-24T15:02:27.811Z,100497.63
2023-03-24T15:05:21.900Z,100491.49
2023-03-24T15:08:11.279Z,100491.83
2023-03-24T15:10:44.769Z,100489.55
2023-03-24T15:13:31.853Z,100491.75
2023-03-24T15:16:03.139Z,100494.27
2023-03-24T15:18:32.350Z,100492.10
2023-03-24T15:21:01.340Z,100488.10
2023-03-24T15:23:30.794Z,100486.36
2023-03-24T15:26:00.297Z,100492.77
2023-03-24T15:28:30.513Z,100488.95
2023-03-24T15:31:00.740Z,100495.31
2023-03-24T15:33:30.526Z,100492.52
2023-03-24T15:36:01.648Z,100497.36
2023-03-24T15:38:32.945Z,100496.77
2023-03-24T15:41:05.851Z,100495.55
2023-03-24T15:43:41.585Z,100493.91
2023-03-24T15:46:19.856Z,100491.64
2023-03-24T15:48:49.711Z,100491.83
2023-03-24T15:51:18.749Z,100491.44
2023-03-24T15:53:55.680Z,100494.64
2023-03-24T15:56:28.493Z,100495.16
2023-03-24T15:59:08.616Z,100495.30
2023-03-24T16:01:38.040Z,100493.89
2023-03-24T16:04:12.951Z,100495.27
2023-03-24T16:06:47.966Z,100497.80
2023-03-24T16:09:21.137Z,100494.00
2023-03-24T16:11:50.402Z,100500.61
2023-03-24T16:14:23.822Z,100498.98
2023-03-24T16:16:55.571Z,100500.13
2023-03-24T16:19:25.375Z,100496.59
2023-03-24T16:21:54.907Z,100496.77
2023-03-24T16:24:24.203Z,100495.75
2023-03-24T16:26:53.177Z,100492.25
2023-03-24T16:29:23.685Z,100491.05
2023-03-24T16:31:55.699Z,100488.91
2023-03-24T16:34:25.324Z,100492.05
2023-03-24T16:36:55.550Z,100493.69
2023-03-24T16:39:26.201Z,100498.04
2023-03-24T16:41:55.848Z,100494.82
2023-03-24T16:44:25.333Z,100495.36
2023-03-24T16:46:55.412Z,100487.05
2023-03-24T16:49:25.622Z,100488.84
2023-03-24T16:51:55.651Z,100490.27
2023-03-24T16:54:24.837Z,100488.02
2023-03-24T16:56:53.869Z,100491.66
2023-03-24T16:59:22.938Z,100489.85
2023-03-24T17:01:55.687Z,100494.07
2023-03-24T17:04:26.858Z,100494.09
2023-03-24T17:06:55.842Z,100495.80
2023-03-24T17:09:25.270Z,100496.55
2023-03-24T17:11:56.881Z,100493.29
2023-03-24T17:14:25.845Z,100497.92
2023-03-24T17:16:54.838Z,100498.08
2023-03-24T17:19:25.046Z,100500.39
2023-03-24T17:21:59.517Z,100500.09
2023-03-24T17:24:29.460Z,100499.77
2023-03-24T17:26:58.474Z,100496.23
2023-03-24T17:29:27.436Z,100497.71
2023-03-24T17:31:56.407Z,100495.48
2023-03-24T17:34:25.444Z,100498.91
2023-03-24T17:36:54.936Z,100495.74
2023-03-24T17:39:23.930Z,100499.20
2023-03-24T17:41:57.010Z,100496.90
2023-03-24T17:44:26.021Z,100495.42
2023-03-24T17:46:55.135Z,100494.88
2023-03-24T17:49:24.147Z,100493.23
2023-03-24T17:51:53.128Z,100491.23
2023-03-24T17:54:22.032Z,100490.73
2023-03-24T17:56:51.357Z,100490.25
2023-03-24T17:59:21.521Z,100494.44
2023-03-24T18:01:50.514Z,100493.05
2023-03-24T18:04:20.047Z,100488.20
2023-03-24T18:06:49.050Z,100487.50
2023-03-24T18:09:18.308Z,100485.76
2023-03-24T18:11:47.928Z,100479.42
2023-03-24T18:14:16.951Z,100484.13
2023-03-24T18:16:45.897Z,100489.19
2023-03-24T18:19:15.647Z,100490.65
2023-03-24T18:21:44.721Z,100488.56
2023-03-24T18:24:13.795Z,100489.85
2023-03-24T18:26:42.895Z,100485.90
2023-03-24T18:29:12.513Z,100490.33
2023-03-24T18:31:41.677Z,100489.08
2023-03-24T18:34:10.684Z,100484.55
2023-03-24T18:36:39.735Z,100485.14
2023-03-24T18:39:10.194Z,100481.52
2023-03-24T18:41:40.060Z,100481.37
2023-03-24T18:44:13.100Z,100478.06
2023-03-24T18:46:42.149Z,100479.45
2023-03-24T18:49:13.601Z,100477.74
2023-03-24T18:51:44.687Z,100479.16
2023-03-24T18:54:13.756Z,100477.34
2023-03-24T18:56:42.664Z,100473.59
2023-03-24T18:59:12.098Z,100467.83
2023-03-24T19:01:41.177Z,100471.17
2023-03-24T19:04:10.588Z,100471.85
2023-03-24T19:06:41.741Z,100469.10
2023-03-24T19:09:12.868Z,100467.08
2023-03-24T19:11:43.434Z,100468.79
2023-03-24T19:14:12.638Z,100466.88
2023-03-24T19:16:41.748Z,100464.45
2023-03-24T19:19:10.799Z,100460.72
2023-03-24T19:21:40.068Z,100464.38
2023-03-24T19:24:09.594Z,100465.69
2023-03-24T19:26:39.810Z,100463.33
2023-03-24T19:29:08.939Z,100465.33
2023-03-24T19:31:38.041Z,100459.92
2023-03-24T19:34:07.038Z,100461.14
2023-03-24T19:36:36.425Z,100458.33
2023-03-24T19:39:05.727Z,100460.17
2023-03-24T19:41:34.735Z,100459.05
2023-03-24T19:44:05.126Z,100461.48
2023-03-24T19:46:34.274Z,100455.62
2023-03-24T19:49:03.450Z,100459.00
2023-03-24T19:51:32.373Z,100455.83
2023-03-24T19:54:01.216Z,100450.22
2023-03-24T19:56:30.472Z,100454.05
2023-03-24T19:58:59.413Z,100459.00
2023-03-24T20:01:34.292Z,100454.30
2023-03-24T20:04:03.381Z,100455.30
2023-03-24T20:06:32.414Z,100455.50
2023-03-24T20:09:01.365Z,100455.77
2023-03-24T20:11:30.723Z,100454.48
2023-03-24T20:13:59.719Z,100457.77
2023-03-24T20:16:28.680Z,100455.24
2023-03-24T20:18:58.206Z,100453.55
2023-03-24T20:21:28.224Z,100453.96
2023-03-24T20:23:57.597Z,100452.85
2023-03-24T20:26:28.886Z,100453.68
2023-03-24T20:28:58.427Z,100448.89
2023-03-24T20:31:28.310Z,100444.73
2023-03-24T20:33:57.441Z,100447.98
2023-03-24T20:36:26.290Z,100447.98
2023-03-24T20:38:58.861Z,100440.53
2023-03-24T20:41:27.764Z,100442.30
2023-03-24T20:43:56.792Z,100439.86
2023-03-24T20:46:25.830Z,100437.63
2023-03-24T20:48:55.433Z,100437.47
2023-03-24T20:51:24.420Z,100436.17
2023-03-24T20:53:53.457Z,100441.05
2023-03-24T20:56:22.417Z,100436.20
2023-03-24T20:58:52.072Z,100437.86
2023-03-24T21:01:22.436Z,100436.55
2023-03-24T21:03:52.965Z,100436.49
2023-03-24T21:06:22.072Z,100436.55
2023-03-24T21:08:52.388Z,100428.41
2023-03-24T21:11:21.646Z,100433.33
2023-03-24T21:13:50.687Z,100428.77
2023-03-24T21:16:20.042Z,100428.40
2023-03-24T21:18:49.479Z,100429.02
2023-03-24T21:21:18.438Z,100428.66
2023-03-24T21:23:47.988Z,100427.06
2023-03-24T21:26:17.608Z,100424.95
2023-03-24T21:28:46.670Z,100428.02
2023-03-24T21:31:18.895Z,100427.11
2023-03-24T21:33:48.100Z,100426.95
2023-03-24T21:36:17.852Z,100426.52
2023-03-24T21:38:49.092Z,100426.81
2023-03-24T21:41:19.236Z,100424.84
2023-03-24T21:43:50.500Z,100421.46
2023-03-24T21:46:20.759Z,100418.34
2023-03-24T21:48:51.310Z,100412.52
2023-03-24T21:51:23.561Z,100410.92
2023-03-24T21:53:54.876Z,100410.48
2023-03-24T21:56:24.068Z,100413.79
2023-03-24T21:58:54.468Z,100414.98
2023-03-24T22:01:23.814Z,100418.52
2023-03-24T22:03:54.255Z,100414.52
2023-03-24T22:06:23.778Z,100408.73
2023-03-24T22:08:57.606Z,100408.52
2023-03-24T22:11:26.683Z,100408.80
2023-03-24T22:13:55.660Z,100408.67
2023-03-24T22:16:24.729Z,100411.48
2023-03-24T22:18:53.756Z,100407.59
2023-03-24T22:21:22.595Z,100404.62
2023-03-24T22:23:51.807Z,100402.65
2023-03-24T22:26:21.184Z,100401.44
2023-03-24T22:28:50.539Z,100402.72
2023-03-24T22:31:22.451Z,100400.41
2023-03-24T22:33:51.605Z,100394.60
2023-03-24T22:36:20.965Z,100400.22
2023-03-24T22:38:50.037Z,100401.64
2023-03-24T22:41:18.987Z,100399.58
2023-03-24T22:43:48.637Z,100398.47
2023-03-24T22:46:17.766Z,100396.54
2023-03-24T22:48:46.670Z,100398.38
2023-03-24T22:51:18.598Z,100393.81
2023-03-24T22:53:48.307Z,100391.74
2023-03-24T22:56:17.197Z,100391.73
2023-03-24T22:58:46.085Z,100393.86
2023-03-24T23:01:15.408Z,100394.23
2023-03-24T23:03:44.400Z,100395.70
2023-03-24T23:06:15.332Z,100385.92
2023-03-24T23:08:44.399Z,100385.33
2023-03-24T23:11:13.356Z,100385.02
2023-03-24T23:13:42.260Z,100384.46
2023-03-24T23:16:11.927Z,100381.83
2023-03-24T23:18:41.098Z,100378.77
2023-03-24T23:21:12.876Z,100377.96
2023-03-24T23:23:43.086Z,100383.13
2023-03-24T23:26:13.818Z,100382.44
2023-03-24T23:28:56.127Z,100381.38
2023-03-24T23:31:27.673Z,100376.70
2023-03-24T23:33:57.940Z,100383.94
2023-03-24T23:36:27.700Z,100385.17
2023-03-24T23:38:56.883Z,100381.05
2023-03-24T23:41:25.858Z,100384.27
2023-03-24T23:43:55.338Z,100378.59
2023-03-24T23:46:25.181Z,100377.09
2023-03-24T23:48:54.257Z,100372.15
2023-03-24T23:51:23.134Z,100364.70
2023-03-24T23:53:52.093Z,100365.87
2023-03-24T23:56:22.159Z,100365.19
2023-03-24T23:58:51.729Z,100365.50
